createdAt,value
2018-05-29T00:00:46.884Z,20.30
2018-05-29T00:03:14.325Z,20.30
2018-05-29T00:05:41.786Z,20.30
2018-05-29T00:08:09.250Z,20.30
2018-05-29T00:10:36.696Z,20.20
2018-05-29T00:13:04.149Z,20.20
2018-05-29T00:15:32.349Z,20.10
2018-05-29T00:18:00.624Z,20.20
2018-05-29T00:20:28.962Z,20.10
2018-05-29T00:22:56.419Z,20.10
2018-05-29T00:25:23.858Z,20.10
2018-05-29T00:27:51.273Z,19.90
2018-05-29T00:30:19.496Z,19.90
2018-05-29T00:32:46.918Z,19.80
2018-05-29T00:35:14.359Z,19.90
2018-05-29T00:37:41.787Z,20.00
2018-05-29T00:40:09.234Z,20.00
2018-05-29T00:42:36.748Z,19.90
2018-05-29T00:45:04.957Z,19.90
2018-05-29T00:47:32.415Z,19.90
2018-05-29T00:49:59.856Z,19.90
2018-05-29T00:52:27.286Z,19.90
2018-05-29T00:55:06.776Z,20.00
2018-05-29T00:57:34.207Z,19.90
2018-05-29T01:00:02.421Z,19.90
2018-05-29T01:02:30.015Z,19.90
2018-05-29T01:04:58.217Z,19.80
2018-05-29T01:07:26.437Z,19.90
2018-05-29T01:09:54.638Z,19.90
2018-05-29T01:12:22.082Z,19.90
2018-05-29T01:14:49.952Z,19.80
2018-05-29T01:17:17.394Z,19.80
2018-05-29T01:19:44.837Z,19.80
2018-05-29T01:22:12.289Z,19.80
2018-05-29T01:24:39.730Z,19.70
2018-05-29T01:27:07.177Z,19.70
2018-05-29T01:29:34.615Z,19.60
2018-05-29T01:32:02.050Z,19.60
2018-05-29T01:34:29.520Z,19.50
2018-05-29T01:36:56.943Z,19.50
2018-05-29T01:39:24.391Z,19.50
2018-05-29T01:41:51.829Z,19.40
2018-05-29T01:44:19.267Z,19.40
2018-05-29T01:46:46.694Z,19.40
2018-05-29T01:49:14.137Z,19.40
2018-05-29T01:51:41.574Z,19.40
2018-05-29T01:54:09.049Z,19.40
2018-05-29T01:56:36.490Z,19.30
2018-05-29T01:59:03.948Z,19.10
2018-05-29T02:01:32.155Z,19.10
2018-05-29T02:03:59.597Z,19.10
2018-05-29T02:06:27.041Z,19.10
2018-05-29T02:08:54.498Z,19.10
2018-05-29T02:11:21.917Z,19.00
2018-05-29T02:13:49.354Z,18.90
2018-05-29T02:16:16.815Z,18.80
2018-05-29T02:18:44.254Z,18.80
2018-05-29T02:21:11.698Z,18.80
2018-05-29T02:23:39.150Z,18.80
2018-05-29T02:26:06.592Z,18.80
2018-05-29T02:28:34.030Z,18.70
2018-05-29T02:31:01.474Z,18.60
2018-05-29T02:33:28.943Z,18.50
2018-05-29T02:35:56.395Z,18.50
2018-05-29T02:38:23.834Z,18.60
2018-05-29T02:40:51.275Z,18.50
2018-05-29T02:43:18.714Z,18.60
2018-05-29T02:45:46.169Z,18.60
2018-05-29T02:48:14.380Z,18.60
2018-05-29T02:50:41.821Z,18.60
2018-05-29T02:53:09.266Z,18.60
2018-05-29T02:55:36.718Z,18.70
2018-05-29T02:58:04.876Z,18.70
2018-05-29T03:00:32.312Z,18.70
2018-05-29T03:02:59.746Z,18.60
2018-05-29T03:05:27.191Z,18.60
2018-05-29T03:07:54.753Z,18.70
2018-05-29T03:10:22.210Z,18.70
2018-05-29T03:12:50.810Z,18.60
2018-05-29T03:15:18.265Z,18.50
2018-05-29T03:17:45.701Z,18.50
2018-05-29T03:20:13.906Z,18.40
2018-05-29T03:22:41.376Z,18.40
2018-05-29T03:25:08.814Z,18.30
2018-05-29T03:27:36.283Z,18.30
2018-05-29T03:30:04.498Z,18.30
2018-05-29T03:32:31.942Z,18.30
2018-05-29T03:34:59.386Z,18.30
2018-05-29T03:37:26.826Z,18.30
2018-05-29T03:39:54.283Z,18.30
2018-05-29T03:42:21.722Z,18.30
2018-05-29T03:44:49.201Z,18.20
2018-05-29T03:47:16.637Z,18.10
2018-05-29T03:49:44.864Z,18.10
2018-05-29T03:52:12.320Z,18.10
2018-05-29T03:54:39.782Z,18.20
2018-05-29T03:57:07.236Z,18.30
2018-05-29T03:59:35.455Z,18.40
2018-05-29T04:02:02.927Z,18.30
2018-05-29T04:04:30.369Z,18.40
2018-05-29T04:06:57.810Z,18.50
2018-05-29T04:09:26.131Z,18.60
2018-05-29T04:11:53.547Z,18.70
2018-05-29T04:14:20.986Z,18.70
2018-05-29T04:16:48.413Z,18.80
2018-05-29T04:19:16.636Z,18.90
2018-05-29T04:21:44.094Z,18.90
2018-05-29T04:24:11.551Z,19.00
2018-05-29T04:26:39.006Z,19.00
2018-05-29T04:29:07.315Z,19.20
2018-05-29T04:31:34.746Z,19.20
2018-05-29T04:34:02.211Z,19.30
2018-05-29T04:36:29.653Z,19.20
2018-05-29T04:38:57.091Z,19.30
2018-05-29T04:41:24.518Z,19.30
2018-05-29T04:43:51.955Z,19.40
2018-05-29T04:46:19.399Z,19.30
2018-05-29T04:48:46.835Z,19.30
2018-05-29T04:51:14.274Z,19.40
2018-05-29T04:53:41.713Z,19.50
2018-05-29T04:56:09.154Z,19.60
2018-05-29T04:58:36.594Z,19.70
2018-05-29T05:01:04.042Z,19.70
2018-05-29T05:03:31.475Z,19.80
2018-05-29T05:05:59.685Z,20.00
2018-05-29T05:08:27.130Z,20.00
2018-05-29T05:10:54.575Z,20.10
2018-05-29T05:13:22.019Z,20.20
2018-05-29T05:15:49.486Z,20.50
2018-05-29T05:18:16.929Z,20.60
2018-05-29T05:20:44.386Z,20.70
2018-05-29T05:23:11.806Z,20.80
2018-05-29T05:25:39.253Z,20.90
2018-05-29T05:28:06.690Z,21.10
2018-05-29T05:30:34.150Z,21.20
2018-05-29T05:33:02.368Z,21.50
2018-05-29T05:35:29.798Z,21.50
2018-05-29T05:37:57.255Z,21.60
2018-05-29T05:40:24.693Z,21.70
2018-05-29T05:42:52.138Z,21.80
2018-05-29T05:45:19.598Z,22.10
2018-05-29T05:47:48.007Z,22.40
2018-05-29T05:50:15.468Z,22.60
2018-05-29T05:52:42.957Z,22.70
2018-05-29T05:55:10.407Z,22.70
2018-05-29T05:57:38.653Z,22.80
2018-05-29T06:00:06.100Z,22.80
2018-05-29T06:02:33.542Z,22.90
2018-05-29T06:05:00.998Z,23.20
2018-05-29T06:07:28.451Z,23.50
2018-05-29T06:09:56.662Z,24.20
2018-05-29T06:12:24.132Z,24.10
2018-05-29T06:14:52.394Z,24.40
2018-05-29T06:17:20.637Z,24.40
2018-05-29T06:19:48.077Z,24.50
2018-05-29T06:22:15.532Z,24.60
2018-05-29T06:24:42.984Z,24.70
2018-05-29T06:27:10.424Z,24.80
2018-05-29T06:29:37.850Z,24.80
2018-05-29T06:32:05.282Z,24.70
2018-05-29T06:34:32.716Z,24.60
2018-05-29T06:37:00.174Z,24.60
2018-05-29T06:39:27.619Z,24.60
2018-05-29T06:41:55.080Z,24.60
2018-05-29T06:44:22.540Z,24.70
2018-05-29T06:46:50.000Z,24.80
2018-05-29T06:49:18.202Z,24.70
2018-05-29T06:51:45.646Z,24.70
2018-05-29T06:54:13.845Z,24.90
2018-05-29T06:56:42.071Z,24.90
2018-05-29T06:59:09.528Z,24.90
2018-05-29T07:01:36.967Z,24.80
2018-05-29T07:04:04.442Z,24.60
2018-05-29T07:06:32.654Z,24.30
2018-05-29T07:09:00.095Z,24.30
2018-05-29T07:11:28.585Z,24.30
2018-05-29T07:13:56.034Z,24.30
2018-05-29T07:16:23.490Z,24.60
2018-05-29T07:18:50.924Z,24.70
2018-05-29T07:21:18.353Z,24.90
2018-05-29T07:23:45.787Z,25.40
2018-05-29T07:26:13.225Z,25.80
2018-05-29T07:28:41.431Z,26.60
2018-05-29T07:31:08.858Z,26.50
2018-05-29T07:33:36.289Z,27.10
2018-05-29T07:36:03.749Z,27.30
2018-05-29T07:38:31.195Z,27.50
2018-05-29T07:40:58.636Z,27.80
2018-05-29T07:43:26.076Z,28.10
2018-05-29T07:45:53.606Z,28.20
2018-05-29T07:48:21.054Z,28.30
2018-05-29T07:50:48.512Z,28.50
2018-05-29T07:53:15.962Z,28.60
2018-05-29T07:55:43.406Z,28.80
2018-05-29T07:58:10.863Z,28.90
2018-05-29T08:00:38.306Z,29.10
2018-05-29T08:03:05.739Z,29.20
2018-05-29T08:05:33.169Z,29.40
2018-05-29T08:08:00.614Z,29.50
2018-05-29T08:10:28.043Z,29.90
2018-05-29T08:12:55.501Z,30.20
2018-05-29T08:15:22.946Z,30.30
2018-05-29T08:17:50.403Z,30.60
2018-05-29T08:20:17.836Z,30.70
2018-05-29T08:22:45.282Z,30.80
2018-05-29T08:25:12.714Z,30.90
2018-05-29T08:27:40.159Z,30.90
2018-05-29T08:30:07.599Z,31.00
2018-05-29T08:32:35.044Z,30.90
2018-05-29T08:35:02.495Z,30.50
2018-05-29T08:37:29.923Z,30.10
2018-05-29T08:39:57.379Z,29.80
2018-05-29T08:42:24.822Z,29.30
2018-05-29T08:44:52.246Z,28.90
2018-05-29T08:47:19.689Z,28.70
2018-05-29T08:49:47.166Z,28.80
2018-05-29T08:52:14.608Z,29.20
2018-05-29T08:54:42.037Z,29.40
2018-05-29T08:57:09.511Z,29.60
2018-05-29T08:59:36.968Z,29.90
2018-05-29T09:02:04.407Z,30.00
2018-05-29T09:04:31.948Z,30.20
2018-05-29T09:06:59.391Z,30.50
2018-05-29T09:09:26.857Z,30.80
2018-05-29T09:11:54.318Z,31.20
2018-05-29T09:14:22.530Z,31.40
2018-05-29T09:16:50.009Z,31.30
2018-05-29T09:19:17.453Z,31.00
2018-05-29T09:21:45.673Z,31.20
2018-05-29T09:24:13.893Z,31.20
2018-05-29T09:26:41.347Z,31.20
2018-05-29T09:29:08.809Z,31.30
2018-05-29T09:31:37.042Z,31.80
2018-05-29T09:34:04.470Z,31.70
2018-05-29T09:36:31.914Z,31.50
2018-05-29T09:38:59.366Z,31.50
2018-05-29T09:41:26.851Z,31.50
2018-05-29T09:43:54.237Z,31.60
2018-05-29T09:46:21.694Z,31.90
2018-05-29T09:48:49.141Z,32.00
2018-05-29T09:51:16.573Z,32.00
2018-05-29T09:53:44.126Z,32.30
2018-05-29T09:56:11.562Z,32.30
2018-05-29T09:58:39.006Z,32.20
2018-05-29T10:01:06.473Z,32.20
2018-05-29T10:03:33.906Z,32.40
2018-05-29T10:06:01.359Z,32.60
2018-05-29T10:08:28.802Z,32.70
2018-05-29T10:10:57.018Z,32.60
2018-05-29T10:13:24.466Z,32.50
2018-05-29T10:15:51.901Z,32.00
2018-05-29T10:18:19.328Z,31.80
2018-05-29T10:20:46.769Z,31.50
2018-05-29T10:23:14.213Z,31.20
2018-05-29T10:25:41.672Z,30.80
2018-05-29T10:28:09.126Z,30.80
2018-05-29T10:30:36.570Z,30.40
2018-05-29T10:33:04.022Z,30.20
2018-05-29T10:35:31.453Z,29.90
2018-05-29T10:37:58.913Z,30.00
2018-05-29T10:40:26.327Z,29.90
2018-05-29T10:42:53.776Z,29.90
2018-05-29T10:45:21.221Z,29.80
2018-05-29T10:47:48.675Z,29.70
2018-05-29T10:50:16.200Z,29.60
2018-05-29T10:52:43.645Z,29.70
2018-05-29T10:55:11.063Z,29.50
2018-05-29T10:57:38.611Z,29.40
2018-05-29T11:00:06.041Z,29.40
2018-05-29T11:02:33.513Z,29.50
2018-05-29T11:05:00.956Z,29.50
2018-05-29T11:07:28.413Z,29.60
2018-05-29T11:09:55.854Z,29.50
2018-05-29T11:12:23.327Z,29.60
2018-05-29T11:14:50.783Z,29.70
2018-05-29T11:17:19.004Z,29.50
2018-05-29T11:19:46.459Z,29.50
2018-05-29T11:22:13.902Z,29.30
2018-05-29T11:24:41.393Z,29.30
2018-05-29T11:27:09.614Z,29.10
2018-05-29T11:29:37.062Z,29.00
2018-05-29T11:32:04.519Z,29.10
2018-05-29T11:34:31.942Z,29.00
2018-05-29T11:36:59.488Z,29.10
2018-05-29T11:39:26.928Z,29.10
2018-05-29T11:41:54.385Z,29.00
2018-05-29T11:44:21.822Z,29.20
2018-05-29T11:46:49.269Z,28.90
2018-05-29T11:49:16.720Z,28.80
2018-05-29T11:51:44.179Z,28.80
2018-05-29T11:54:11.658Z,28.70
2018-05-29T11:56:39.868Z,28.80
2018-05-29T11:59:07.320Z,28.80
2018-05-29T12:01:34.758Z,28.90
2018-05-29T12:04:02.202Z,29.10
2018-05-29T12:06:29.646Z,29.20
2018-05-29T12:08:57.097Z,29.30
2018-05-29T12:11:24.518Z,29.20
2018-05-29T12:13:51.975Z,29.30
2018-05-29T12:16:19.418Z,29.30
2018-05-29T12:18:46.853Z,29.40
2018-05-29T12:21:14.302Z,29.40
2018-05-29T12:23:41.765Z,29.40
2018-05-29T12:26:09.206Z,29.30
2018-05-29T12:28:36.686Z,29.20
2018-05-29T12:31:04.145Z,29.30
2018-05-29T12:33:31.586Z,29.40
2018-05-29T12:35:59.781Z,29.20
2018-05-29T12:38:27.223Z,29.20
2018-05-29T12:40:54.666Z,29.40
2018-05-29T12:43:22.133Z,29.30
2018-05-29T12:45:49.593Z,29.00
2018-05-29T12:48:17.038Z,29.00
2018-05-29T12:50:44.541Z,29.20
2018-05-29T12:53:12.019Z,29.20
2018-05-29T12:55:39.425Z,29.30
2018-05-29T12:58:06.887Z,29.30
2018-05-29T13:00:34.330Z,29.20
2018-05-29T13:03:01.781Z,29.10
2018-05-29T13:05:29.274Z,29.20
2018-05-29T13:07:56.676Z,29.20
2018-05-29T13:10:24.098Z,29.20
2018-05-29T13:12:51.542Z,29.40
2018-05-29T13:15:18.999Z,29.40
2018-05-29T13:17:46.435Z,29.60
2018-05-29T13:20:13.877Z,29.70
2018-05-29T13:22:41.317Z,29.80
2018-05-29T13:25:08.802Z,29.70
2018-05-29T13:27:37.733Z,30.20
2018-05-29T13:30:05.177Z,30.10
2018-05-29T13:32:32.637Z,30.30
2018-05-29T13:35:00.082Z,30.40
2018-05-29T13:37:27.522Z,30.60
2018-05-29T13:39:54.967Z,30.60
2018-05-29T13:42:22.410Z,30.70
2018-05-29T13:44:49.854Z,30.60
2018-05-29T13:47:17.310Z,30.50
2018-05-29T13:49:45.519Z,30.30
2018-05-29T13:52:12.983Z,30.30
2018-05-29T13:54:40.447Z,30.40
2018-05-29T13:57:07.935Z,30.30
2018-05-29T13:59:35.412Z,30.30
2018-05-29T14:02:02.872Z,30.20
2018-05-29T14:04:30.314Z,30.00
2018-05-29T14:06:57.779Z,29.90
2018-05-29T14:09:25.285Z,29.70
2018-05-29T14:11:52.710Z,29.70
2018-05-29T14:14:20.218Z,29.60
2018-05-29T14:16:48.450Z,29.20
2018-05-29T14:19:15.943Z,29.20
2018-05-29T14:21:43.361Z,29.10
2018-05-29T14:24:10.822Z,29.10
2018-05-29T14:26:38.265Z,29.00
2018-05-29T14:29:05.717Z,28.90
2018-05-29T14:31:33.210Z,28.90
2018-05-29T14:34:00.662Z,28.90
2018-05-29T14:36:28.092Z,28.80
2018-05-29T14:38:55.546Z,28.80
2018-05-29T14:41:22.966Z,28.80
2018-05-29T14:43:50.443Z,28.70
2018-05-29T14:46:17.833Z,28.80
2018-05-29T14:48:46.038Z,29.00
2018-05-29T14:51:13.473Z,28.90
2018-05-29T14:53:40.940Z,29.00
2018-05-29T14:56:08.366Z,29.00
2018-05-29T14:58:37.143Z,28.80
2018-05-29T15:01:04.568Z,28.80
2018-05-29T15:03:32.013Z,28.80
2018-05-29T15:05:59.453Z,28.90
2018-05-29T15:08:26.890Z,28.90
2018-05-29T15:10:54.437Z,28.80
2018-05-29T15:13:21.882Z,28.70
2018-05-29T15:15:49.327Z,28.70
2018-05-29T15:18:16.814Z,28.50
2018-05-29T15:20:44.299Z,28.30
2018-05-29T15:23:11.783Z,28.20
2018-05-29T15:25:39.235Z,28.30
2018-05-29T15:28:06.691Z,28.20
2018-05-29T15:30:34.117Z,28.20
2018-05-29T15:33:01.556Z,28.10
2018-05-29T15:35:28.997Z,28.00
2018-05-29T15:37:56.467Z,28.00
2018-05-29T15:40:23.916Z,27.90
2018-05-29T15:42:52.109Z,28.10
2018-05-29T15:45:19.554Z,28.10
2018-05-29T15:47:46.998Z,28.20
2018-05-29T15:50:14.467Z,28.30
2018-05-29T15:52:41.922Z,28.40
2018-05-29T15:55:09.382Z,28.50
2018-05-29T15:57:36.828Z,28.60
2018-05-29T16:00:04.268Z,28.70
2018-05-29T16:02:31.979Z,28.80
2018-05-29T16:04:59.437Z,28.90
2018-05-29T16:07:26.875Z,28.90
2018-05-29T16:09:54.318Z,29.10
2018-05-29T16:12:21.774Z,29.20
2018-05-29T16:14:49.232Z,29.10
2018-05-29T16:17:17.438Z,29.00
2018-05-29T16:19:44.898Z,29.00
2018-05-29T16:22:12.338Z,28.90
2018-05-29T16:24:39.782Z,28.70
2018-05-29T16:27:07.253Z,28.50
2018-05-29T16:29:34.712Z,28.40
2018-05-29T16:32:02.919Z,28.10
2018-05-29T16:34:30.349Z,28.10
2018-05-29T16:36:57.811Z,28.00
2018-05-29T16:39:25.260Z,27.90
2018-05-29T16:41:52.711Z,27.80
2018-05-29T16:44:20.914Z,27.50
2018-05-29T16:46:48.354Z,27.60
2018-05-29T16:49:16.547Z,27.30
2018-05-29T16:51:43.988Z,27.30
2018-05-29T16:54:11.438Z,27.30
2018-05-29T16:56:38.895Z,27.30
2018-05-29T16:59:06.346Z,27.30
2018-05-29T17:01:33.791Z,27.30
2018-05-29T17:04:01.235Z,27.30
2018-05-29T17:06:28.666Z,27.30
2018-05-29T17:08:56.098Z,27.30
2018-05-29T17:11:23.566Z,27.30
2018-05-29T17:13:51.015Z,27.20
2018-05-29T17:16:18.470Z,27.00
2018-05-29T17:18:45.896Z,26.80
2018-05-29T17:21:13.344Z,26.60
2018-05-29T17:23:40.811Z,26.50
2018-05-29T17:26:08.250Z,26.50
2018-05-29T17:28:35.706Z,26.30
2018-05-29T17:31:03.183Z,26.20
2018-05-29T17:33:31.400Z,26.00
2018-05-29T17:35:58.827Z,26.00
2018-05-29T17:38:27.241Z,26.10
2018-05-29T17:40:55.447Z,26.00
2018-05-29T17:43:22.906Z,26.00
2018-05-29T17:45:50.365Z,25.90
2018-05-29T17:48:17.823Z,25.80
2018-05-29T17:50:45.279Z,25.70
2018-05-29T17:53:13.487Z,25.40
2018-05-29T17:55:40.933Z,25.40
2018-05-29T17:58:08.405Z,25.30
2018-05-29T18:00:35.852Z,25.20
2018-05-29T18:03:03.285Z,24.90
2018-05-29T18:05:30.742Z,24.80
2018-05-29T18:07:58.204Z,24.80
2018-05-29T18:10:25.670Z,24.80
2018-05-29T18:12:53.172Z,24.80
2018-05-29T18:15:20.609Z,24.90
2018-05-29T18:17:48.070Z,24.80
2018-05-29T18:20:16.289Z,24.70
2018-05-29T18:22:43.722Z,24.70
2018-05-29T18:25:11.162Z,24.70
2018-05-29T18:27:38.609Z,24.50
2018-05-29T18:30:06.070Z,24.40
2018-05-29T18:32:34.304Z,24.40
2018-05-29T18:35:01.734Z,24.30
2018-05-29T18:37:29.246Z,24.40
2018-05-29T18:39:56.701Z,24.40
2018-05-29T18:42:24.159Z,24.40
2018-05-29T18:44:51.617Z,24.40
2018-05-29T18:47:19.078Z,24.40
2018-05-29T18:49:46.530Z,24.30
2018-05-29T18:52:14.742Z,24.30
2018-05-29T18:54:42.206Z,24.20
2018-05-29T18:57:09.644Z,24.20
2018-05-29T18:59:37.091Z,24.20
2018-05-29T19:02:04.529Z,24.20
2018-05-29T19:04:31.987Z,24.10
2018-05-29T19:06:59.431Z,24.10
2018-05-29T19:09:26.874Z,24.10
2018-05-29T19:11:54.323Z,24.10
2018-05-29T19:14:21.775Z,24.10
2018-05-29T19:16:50.056Z,24.10
2018-05-29T19:19:17.462Z,24.10
2018-05-29T19:21:44.894Z,24.00
2018-05-29T19:24:12.364Z,24.00
2018-05-29T19:26:39.820Z,23.90
2018-05-29T19:29:08.026Z,23.50
2018-05-29T19:31:35.481Z,23.50
2018-05-29T19:34:03.684Z,23.50
2018-05-29T19:36:32.735Z,23.50
2018-05-29T19:39:00.187Z,23.50
2018-05-29T19:41:27.630Z,23.50
2018-05-29T19:43:55.087Z,23.50
2018-05-29T19:46:23.294Z,23.40
2018-05-29T19:48:50.751Z,23.40
2018-05-29T19:51:18.227Z,23.30
2018-05-29T19:53:45.646Z,23.30
2018-05-29T19:56:13.104Z,23.30
2018-05-29T19:58:40.593Z,23.30
2018-05-29T20:01:08.256Z,23.20
2018-05-29T20:03:35.694Z,23.20
2018-05-29T20:06:03.159Z,23.20
2018-05-29T20:08:30.689Z,23.10
2018-05-29T20:10:58.118Z,23.00
2018-05-29T20:13:25.767Z,23.10
2018-05-29T20:15:53.578Z,23.00
2018-05-29T20:18:21.784Z,23.00
2018-05-29T20:20:49.238Z,23.00
2018-05-29T20:23:16.698Z,23.00
2018-05-29T20:25:44.133Z,22.90
2018-05-29T20:28:11.597Z,22.90
2018-05-29T20:30:39.054Z,22.80
2018-05-29T20:33:06.538Z,22.80
2018-05-29T20:35:34.739Z,22.60
2018-05-29T20:38:02.202Z,22.60
2018-05-29T20:40:29.670Z,22.70
2018-05-29T20:42:57.102Z,22.70
2018-05-29T20:45:24.573Z,22.70
2018-05-29T20:47:52.006Z,22.70
2018-05-29T20:50:19.537Z,22.70
2018-05-29T20:52:46.970Z,22.70
2018-05-29T20:55:14.433Z,22.70
2018-05-29T20:57:41.887Z,22.70
2018-05-29T21:00:09.344Z,22.70
2018-05-29T21:02:36.777Z,22.70
2018-05-29T21:05:04.234Z,22.60
2018-05-29T21:07:31.690Z,22.60
2018-05-29T21:09:59.926Z,22.60
2018-05-29T21:12:27.415Z,22.60
2018-05-29T21:14:54.857Z,22.60
2018-05-29T21:17:22.302Z,22.60
2018-05-29T21:19:49.758Z,22.70
2018-05-29T21:22:17.235Z,22.80
2018-05-29T21:24:44.686Z,22.80
2018-05-29T21:27:12.130Z,22.80
2018-05-29T21:29:39.591Z,22.70
2018-05-29T21:32:07.051Z,22.70
2018-05-29T21:34:35.250Z,22.80
2018-05-29T21:37:02.715Z,22.80
2018-05-29T21:39:31.097Z,22.80
2018-05-29T21:41:58.542Z,22.80
2018-05-29T21:44:26.006Z,22.90
2018-05-29T21:46:54.219Z,22.90
2018-05-29T21:49:21.695Z,22.80
2018-05-29T21:51:49.131Z,22.90
2018-05-29T21:54:16.594Z,22.90
2018-05-29T21:56:44.791Z,22.80
2018-05-29T21:59:12.244Z,22.80
2018-05-29T22:01:39.701Z,22.80
2018-05-29T22:04:07.169Z,22.80
2018-05-29T22:06:34.615Z,22.80
2018-05-29T22:09:02.841Z,22.90
2018-05-29T22:11:30.286Z,22.80
2018-05-29T22:13:57.742Z,22.90
2018-05-29T22:16:25.179Z,22.80
2018-05-29T22:18:52.642Z,22.90
2018-05-29T22:21:20.095Z,22.80
2018-05-29T22:23:48.306Z,22.70
2018-05-29T22:26:15.738Z,22.70
2018-05-29T22:28:43.197Z,22.70
2018-05-29T22:31:10.639Z,22.70
2018-05-29T22:33:38.086Z,22.60
2018-05-29T22:36:05.533Z,22.60
2018-05-29T22:38:32.976Z,22.50
2018-05-29T22:41:00.449Z,22.50
2018-05-29T22:43:27.890Z,22.50
2018-05-29T22:45:55.355Z,22.40
2018-05-29T22:48:23.557Z,22.40
2018-05-29T22:50:51.010Z,22.40
2018-05-29T22:53:18.470Z,22.40
2018-05-29T22:55:45.928Z,22.40
2018-05-29T22:58:13.384Z,22.40
2018-05-29T23:00:41.591Z,22.40
2018-05-29T23:03:09.569Z,22.40
2018-05-29T23:05:37.037Z,22.30
2018-05-29T23:08:05.273Z,22.20
2018-05-29T23:10:32.737Z,22.20
2018-05-29T23:13:00.210Z,22.20
2018-05-29T23:15:27.661Z,22.20
2018-05-29T23:17:55.122Z,22.30
2018-05-29T23:20:23.346Z,22.30
2018-05-29T23:22:50.799Z,22.20
2018-05-29T23:25:18.261Z,22.30
2018-05-29T23:27:45.729Z,22.30
2018-05-29T23:30:13.198Z,22.30
2018-05-29T23:32:40.653Z,22.30
2018-05-29T23:35:08.103Z,22.30
2018-05-29T23:37:35.563Z,22.30
2018-05-29T23:40:03.770Z,22.20
2018-05-29T23:42:31.207Z,22.20
2018-05-29T23:44:58.668Z,22.20
2018-05-29T23:47:26.126Z,22.20
2018-05-29T23:49:53.584Z,22.20
2018-05-29T23:52:21.038Z,22.30
2018-05-29T23:54:49.282Z,22.30
2018-05-29T23:57:16.713Z,22.30
2018-05-29T23:59:44.175Z,22.30
